sensor_id;sensor_type;location;lat;lon;timestamp;temperature;humidity
17797;DHT22;55596;53.554;9.916;2022-12-18T00:00:13;-5.10;99.90
17797;DHT22;55596;53.554;9.916;2022-12-18T00:02:41;-5.80;99.90
17797;DHT22;55596;53.554;9.916;2022-12-18T00:05:08;-5.30;99.90
17797;DHT22;55596;53.554;9.916;2022-12-18T00:07:35;-5.60;99.90
17797;DHT22;55596;53.554;9.916;2022-12-18T00:10:04;-5.30;99.90
17797;DHT22;55596;53.554;9.916;2022-12-18T00:12:31;-5.40;99.90
17797;DHT22;55596;53.554;9.916;2022-12-18T00:14:58;-5.20;99.90
17797;DHT22;55596;53.554;9.916;2022-12-18T00:17:25;-5.00;99.90
17797;DHT22;55596;53.554;9.916;2022-12-18T00:19:54;-5.70;99.90
17797;DHT22;55596;53.554;9.916;2022-12-18T00:22:21;-3.70;99.90
17797;DHT22;55596;53.554;9.916;2022-12-18T00:24:48;-4.60;99.90
17797;DHT22;55596;53.554;9.916;2022-12-18T00:27:15;-5.40;99.90
17797;DHT22;55596;53.554;9.916;2022-12-18T00:29:41;-5.40;99.90
17797;DHT22;55596;53.554;9.916;2022-12-18T00:32:08;-5.60;99.90
17797;DHT22;55596;53.554;9.916;2022-12-18T00:34:35;-5.50;99.90
17797;DHT22;55596;53.554;9.916;2022-12-18T00:37:04;-5.50;99.90
17797;DHT22;55596;53.554;9.916;2022-12-18T00:39:31;-5.60;99.90
17797;DHT22;55596;53.554;9.916;2022-12-18T00:41:58;-5.50;99.90
17797;DHT22;55596;53.554;9.916;2022-12-18T00:44:42;-5.70;99.90
17797;DHT22;55596;53.554;9.916;2022-12-18T00:47:09;-5.70;99.90
17797;DHT22;55596;53.554;9.916;2022-12-18T00:49:36;-5.30;99.90
17797;DHT22;55596;53.554;9.916;2022-12-18T00:52:04;-5.40;99.90
17797;DHT22;55596;53.554;9.916;2022-12-18T00:54:33;-5.40;99.90
17797;DHT22;55596;53.554;9.916;2022-12-18T00:59:28;-5.20;99.90
17797;DHT22;55596;53.554;9.916;2022-12-18T01:01:55;-5.40;99.90
17797;DHT22;55596;53.554;9.916;2022-12-18T01:04:22;-3.40;99.90
17797;DHT22;55596;53.554;9.916;2022-12-18T01:06:49;-5.60;99.90
17797;DHT22;55596;53.554;9.916;2022-12-18T01:09:17;-5.60;99.90
17797;DHT22;55596;53.554;9.916;2022-12-18T01:11:44;-5.70;99.90
17797;DHT22;55596;53.554;9.916;2022-12-18T01:14:11;-5.70;99.90
17797;DHT22;55596;53.554;9.916;2022-12-18T01:16:38;-5.80;99.90
17797;DHT22;55596;53.554;9.916;2022-12-18T01:19:05;-5.40;99.90
17797;DHT22;55596;53.554;9.916;2022-12-18T01:21:32;-5.50;99.90
17797;DHT22;55596;53.554;9.916;2022-12-18T01:23:59;-5.60;99.90
17797;DHT22;55596;53.554;9.916;2022-12-18T01:26:27;-5.10;99.90
17797;DHT22;55596;53.554;9.916;2022-12-18T01:28:56;-5.50;99.90
17797;DHT22;55596;53.554;9.916;2022-12-18T01:31:25;-5.50;99.90
17797;DHT22;55596;53.554;9.916;2022-12-18T01:33:53;-5.50;99.90
17797;DHT22;55596;53.554;9.916;2022-12-18T01:36:21;-5.20;99.90
17797;DHT22;55596;53.554;9.916;2022-12-18T01:38:49;-5.30;99.90
17797;DHT22;55596;53.554;9.916;2022-12-18T01:41:19;-5.70;99.90
17797;DHT22;55596;53.554;9.916;2022-12-18T01:43:51;-5.80;99.90
17797;DHT22;55596;53.554;9.916;2022-12-18T01:46:22;-5.70;99.90
17797;DHT22;55596;53.554;9.916;2022-12-18T01:48:54;-5.70;99.90
17797;DHT22;55596;53.554;9.916;2022-12-18T01:51:22;-5.70;99.90
17797;DHT22;55596;53.554;9.916;2022-12-18T01:53:49;-5.70;99.90
17797;DHT22;55596;53.554;9.916;2022-12-18T01:56:18;-5.70;99.90
17797;DHT22;55596;53.554;9.916;2022-12-18T01:58:52;-5.70;99.90
17797;DHT22;55596;53.554;9.916;2022-12-18T02:01:23;-5.70;99.90
17797;DHT22;55596;53.554;9.916;2022-12-18T02:03:51;-5.60;99.90
17797;DHT22;55596;53.554;9.916;2022-12-18T02:06:22;-5.90;99.90
17797;DHT22;55596;53.554;9.916;2022-12-18T02:09:00;-5.80;99.90
17797;DHT22;55596;53.554;9.916;2022-12-18T02:11:39;-5.90;99.90
17797;DHT22;55596;53.554;9.916;2022-12-18T02:14:17;-5.80;99.90
17797;DHT22;55596;53.554;9.916;2022-12-18T02:16:48;-5.70;99.90
17797;DHT22;55596;53.554;9.916;2022-12-18T02:19:39;-5.90;99.90
17797;DHT22;55596;53.554;9.916;2022-12-18T02:22:21;-5.60;99.90
17797;DHT22;55596;53.554;9.916;2022-12-18T02:25:03;-5.80;99.90
17797;DHT22;55596;53.554;9.916;2022-12-18T02:27:35;-5.70;99.90
17797;DHT22;55596;53.554;9.916;2022-12-18T02:30:04;-5.70;99.90
17797;DHT22;55596;53.554;9.916;2022-12-18T02:32:36;-5.60;99.90
17797;DHT22;55596;53.554;9.916;2022-12-18T02:35:07;-5.70;99.90
17797;DHT22;55596;53.554;9.916;2022-12-18T02:37:35;-5.70;99.90
17797;DHT22;55596;53.554;9.916;2022-12-18T02:40:05;-5.90;99.90
17797;DHT22;55596;53.554;9.916;2022-12-18T02:42:34;-5.80;99.90
17797;DHT22;55596;53.554;9.916;2022-12-18T02:45:00;-6.00;99.90
17797;DHT22;55596;53.554;9.916;2022-12-18T02:47:32;-5.90;99.90
17797;DHT22;55596;53.554;9.916;2022-12-18T02:50:07;-6.00;99.90
17797;DHT22;55596;53.554;9.916;2022-12-18T02:52:44;-5.70;99.90
17797;DHT22;55596;53.554;9.916;2022-12-18T02:55:24;-5.80;99.90
17797;DHT22;55596;53.554;9.916;2022-12-18T02:57:58;-6.00;99.90
17797;DHT22;55596;53.554;9.916;2022-12-18T03:00:33;-5.80;99.90
17797;DHT22;55596;53.554;9.916;2022-12-18T03:03:06;-5.90;99.90
17797;DHT22;55596;53.554;9.916;2022-12-18T03:05:39;-6.00;99.90
17797;DHT22;55596;53.554;9.916;2022-12-18T03:08:10;-6.10;99.90
17797;DHT22;55596;53.554;9.916;2022-12-18T03:10:42;-5.60;99.90
17797;DHT22;55596;53.554;9.916;2022-12-18T03:13:15;-6.00;99.90
17797;DHT22;55596;53.554;9.916;2022-12-18T03:15:46;-5.70;99.90
17797;DHT22;55596;53.554;9.916;2022-12-18T03:18:17;-6.30;99.90
17797;DHT22;55596;53.554;9.916;2022-12-18T03:20:48;-6.20;99.90
17797;DHT22;55596;53.554;9.916;2022-12-18T03:23:21;-6.10;99.90
17797;DHT22;55596;53.554;9.916;2022-12-18T03:25:52;-5.90;99.90
17797;DHT22;55596;53.554;9.916;2022-12-18T03:28:22;-6.30;99.90
17797;DHT22;55596;53.554;9.916;2022-12-18T03:30:54;-6.10;99.90
17797;DHT22;55596;53.554;9.916;2022-12-18T03:33:26;-6.30;99.90
17797;DHT22;55596;53.554;9.916;2022-12-18T03:35:55;-6.20;99.90
17797;DHT22;55596;53.554;9.916;2022-12-18T03:38:23;-6.00;99.90
17797;DHT22;55596;53.554;9.916;2022-12-18T03:40:58;-6.10;99.90
17797;DHT22;55596;53.554;9.916;2022-12-18T03:43:36;-6.50;99.90
17797;DHT22;55596;53.554;9.916;2022-12-18T03:46:10;-6.30;99.90
17797;DHT22;55596;53.554;9.916;2022-12-18T03:48:43;-6.30;99.90
17797;DHT22;55596;53.554;9.916;2022-12-18T03:51:15;-6.40;99.90
17797;DHT22;55596;53.554;9.916;2022-12-18T03:53:47;-6.00;99.90
17797;DHT22;55596;53.554;9.916;2022-12-18T03:56:17;-6.30;99.90
17797;DHT22;55596;53.554;9.916;2022-12-18T03:58:48;-6.70;99.90
17797;DHT22;55596;53.554;9.916;2022-12-18T04:01:17;-6.50;99.90
17797;DHT22;55596;53.554;9.916;2022-12-18T04:03:47;-6.40;99.90
17797;DHT22;55596;53.554;9.916;2022-12-18T04:06:17;-6.10;99.90
17797;DHT22;55596;53.554;9.916;2022-12-18T04:08:45;-6.20;99.90
17797;DHT22;55596;53.554;9.916;2022-12-18T04:11:12;-5.90;99.90
17797;DHT22;55596;53.554;9.916;2022-12-18T04:13:39;-6.30;99.90
17797;DHT22;55596;53.554;9.916;2022-12-18T04:16:08;-6.30;99.90
17797;DHT22;55596;53.554;9.916;2022-12-18T04:18:36;-5.90;99.90
17797;DHT22;55596;53.554;9.916;2022-12-18T04:21:03;-6.20;99.90
17797;DHT22;55596;53.554;9.916;2022-12-18T04:23:30;-6.30;99.90
17797;DHT22;55596;53.554;9.916;2022-12-18T04:25:57;-6.20;99.90
17797;DHT22;55596;53.554;9.916;2022-12-18T04:28:23;-5.90;99.90
17797;DHT22;55596;53.554;9.916;2022-12-18T04:30:50;-6.10;99.90
17797;DHT22;55596;53.554;9.916;2022-12-18T04:33:19;-6.20;99.90
17797;DHT22;55596;53.554;9.916;2022-12-18T04:35:46;-6.10;99.90
17797;DHT22;55596;53.554;9.916;2022-12-18T04:38:13;-6.00;99.90
17797;DHT22;55596;53.554;9.916;2022-12-18T04:40:40;-6.20;99.90
17797;DHT22;55596;53.554;9.916;2022-12-18T04:43:06;-6.00;99.90
17797;DHT22;55596;53.554;9.916;2022-12-18T04:45:33;-5.70;99.90
17797;DHT22;55596;53.554;9.916;2022-12-18T04:48:01;-6.10;99.90
17797;DHT22;55596;53.554;9.916;2022-12-18T04:50:29;-6.10;99.90
17797;DHT22;55596;53.554;9.916;2022-12-18T04:52:56;-6.20;99.90
17797;DHT22;55596;53.554;9.916;2022-12-18T04:55:26;-6.00;99.90
17797;DHT22;55596;53.554;9.916;2022-12-18T04:57:53;-6.10;99.90
17797;DHT22;55596;53.554;9.916;2022-12-18T05:00:21;-5.90;99.90
17797;DHT22;55596;53.554;9.916;2022-12-18T05:02:47;-6.30;99.90
17797;DHT22;55596;53.554;9.916;2022-12-18T05:05:16;-5.90;99.90
17797;DHT22;55596;53.554;9.916;2022-12-18T05:07:44;-6.20;99.90
17797;DHT22;55596;53.554;9.916;2022-12-18T05:10:11;-6.20;99.90
17797;DHT22;55596;53.554;9.916;2022-12-18T05:12:38;-6.40;99.90
17797;DHT22;55596;53.554;9.916;2022-12-18T05:15:24;-6.20;99.90
17797;DHT22;55596;53.554;9.916;2022-12-18T05:17:50;-6.20;99.90
17797;DHT22;55596;53.554;9.916;2022-12-18T05:20:17;-6.40;99.90
17797;DHT22;55596;53.554;9.916;2022-12-18T05:22:46;-6.50;99.90
17797;DHT22;55596;53.554;9.916;2022-12-18T05:25:13;-6.50;99.90
17797;DHT22;55596;53.554;9.916;2022-12-18T05:27:40;-6.40;99.90
17797;DHT22;55596;53.554;9.916;2022-12-18T05:30:08;-6.40;99.90
17797;DHT22;55596;53.554;9.916;2022-12-18T05:32:35;-6.40;99.90
17797;DHT22;55596;53.554;9.916;2022-12-18T05:35:03;-6.40;99.90
17797;DHT22;55596;53.554;9.916;2022-12-18T05:37:30;-6.40;99.90
17797;DHT22;55596;53.554;9.916;2022-12-18T05:39:59;-6.40;99.90
17797;DHT22;55596;53.554;9.916;2022-12-18T05:42:26;-6.50;99.90
17797;DHT22;55596;53.554;9.916;2022-12-18T05:44:52;-6.40;99.90
17797;DHT22;55596;53.554;9.916;2022-12-18T05:47:19;-6.60;99.90
17797;DHT22;55596;53.554;9.916;2022-12-18T05:49:46;-6.50;99.90
17797;DHT22;55596;53.554;9.916;2022-12-18T05:52:13;-6.60;99.90
17797;DHT22;55596;53.554;9.916;2022-12-18T05:54:40;-6.70;99.90
17797;DHT22;55596;53.554;9.916;2022-12-18T05:57:08;-6.70;99.90
17797;DHT22;55596;53.554;9.916;2022-12-18T05:59:36;-6.70;99.90
17797;DHT22;55596;53.554;9.916;2022-12-18T06:02:04;-6.70;99.90
17797;DHT22;55596;53.554;9.916;2022-12-18T06:04:31;-6.70;99.90
17797;DHT22;55596;53.554;9.916;2022-12-18T06:06:58;-6.50;99.90
17797;DHT22;55596;53.554;9.916;2022-12-18T06:09:25;-6.60;99.90
17797;DHT22;55596;53.554;9.916;2022-12-18T06:11:52;-6.60;99.90
17797;DHT22;55596;53.554;9.916;2022-12-18T06:14:20;-6.60;99.90
17797;DHT22;55596;53.554;9.916;2022-12-18T06:16:50;-6.30;99.90
17797;DHT22;55596;53.554;9.916;2022-12-18T06:19:18;-6.50;99.90
17797;DHT22;55596;53.554;9.916;2022-12-18T06:21:46;-6.60;99.90
17797;DHT22;55596;53.554;9.916;2022-12-18T06:24:13;-6.70;99.90
17797;DHT22;55596;53.554;9.916;2022-12-18T06:26:40;-6.60;99.90
17797;DHT22;55596;53.554;9.916;2022-12-18T06:29:07;-7.10;99.90
17797;DHT22;55596;53.554;9.916;2022-12-18T06:31:35;-6.70;99.90
17797;DHT22;55596;53.554;9.916;2022-12-18T06:34:03;-6.60;99.90
17797;DHT22;55596;53.554;9.916;2022-12-18T06:36:31;-6.90;99.90
17797;DHT22;55596;53.554;9.916;2022-12-18T06:38:58;-6.90;99.90
17797;DHT22;55596;53.554;9.916;2022-12-18T06:41:25;-6.80;99.90
17797;DHT22;55596;53.554;9.916;2022-12-18T06:43:52;-6.50;99.90
17797;DHT22;55596;53.554;9.916;2022-12-18T06:46:19;-7.10;99.90
17797;DHT22;55596;53.554;9.916;2022-12-18T06:48:49;-6.80;99.90
17797;DHT22;55596;53.554;9.916;2022-12-18T06:51:18;-6.80;99.90
17797;DHT22;55596;53.554;9.916;2022-12-18T06:53:45;-7.40;99.90
17797;DHT22;55596;53.554;9.916;2022-12-18T06:56:12;-6.70;99.90
17797;DHT22;55596;53.554;9.916;2022-12-18T06:58:39;-6.80;99.90
17797;DHT22;55596;53.554;9.916;2022-12-18T07:01:09;-6.90;99.90
17797;DHT22;55596;53.554;9.916;2022-12-18T07:03:37;-6.80;99.90
17797;DHT22;55596;53.554;9.916;2022-12-18T07:06:13;-6.70;99.90
17797;DHT22;55596;53.554;9.916;2022-12-18T07:08:41;-6.80;99.90
17797;DHT22;55596;53.554;9.916;2022-12-18T07:11:08;-6.70;99.90
17797;DHT22;55596;53.554;9.916;2022-12-18T07:13:35;-6.70;99.90
17797;DHT22;55596;53.554;9.916;2022-12-18T07:16:07;-6.80;99.90
17797;DHT22;55596;53.554;9.916;2022-12-18T07:18:35;-6.60;99.90
17797;DHT22;55596;53.554;9.916;2022-12-18T07:21:08;-6.70;99.90
17797;DHT22;55596;53.554;9.916;2022-12-18T07:23:39;-7.00;99.90
17797;DHT22;55596;53.554;9.916;2022-12-18T07:26:09;-6.60;99.90
17797;DHT22;55596;53.554;9.916;2022-12-18T07:28:39;-6.60;99.90
17797;DHT22;55596;53.554;9.916;2022-12-18T07:31:09;-6.70;99.90
17797;DHT22;55596;53.554;9.916;2022-12-18T07:33:37;-6.60;99.90
17797;DHT22;55596;53.554;9.916;2022-12-18T07:36:07;-6.60;99.90
17797;DHT22;55596;53.554;9.916;2022-12-18T07:38:35;-6.70;99.90
17797;DHT22;55596;53.554;9.916;2022-12-18T07:41:02;-6.60;99.90
17797;DHT22;55596;53.554;9.916;2022-12-18T07:43:29;-6.60;99.90
17797;DHT22;55596;53.554;9.916;2022-12-18T07:45:56;-6.50;99.90
17797;DHT22;55596;53.554;9.916;2022-12-18T07:48:23;-6.20;99.90
17797;DHT22;55596;53.554;9.916;2022-12-18T07:50:50;-6.50;99.90
17797;DHT22;55596;53.554;9.916;2022-12-18T07:53:18;-6.40;99.90
17797;DHT22;55596;53.554;9.916;2022-12-18T07:55:45;-6.60;99.90
17797;DHT22;55596;53.554;9.916;2022-12-18T07:58:12;-6.30;99.90
17797;DHT22;55596;53.554;9.916;2022-12-18T08:00:39;-6.10;99.90
17797;DHT22;55596;53.554;9.916;2022-12-18T08:03:06;-6.10;99.90
17797;DHT22;55596;53.554;9.916;2022-12-18T08:05:33;-6.20;99.90
17797;DHT22;55596;53.554;9.916;2022-12-18T08:08:00;-6.20;99.90
17797;DHT22;55596;53.554;9.916;2022-12-18T08:10:28;-5.90;99.90
17797;DHT22;55596;53.554;9.916;2022-12-18T08:12:55;-6.00;99.90
17797;DHT22;55596;53.554;9.916;2022-12-18T08:15:22;-6.00;99.90
17797;DHT22;55596;53.554;9.916;2022-12-18T08:17:49;-6.20;99.90
17797;DHT22;55596;53.554;9.916;2022-12-18T08:20:16;-6.10;99.90
17797;DHT22;55596;53.554;9.916;2022-12-18T08:22:43;-5.90;99.90
17797;DHT22;55596;53.554;9.916;2022-12-18T08:25:10;-5.90;99.90
17797;DHT22;55596;53.554;9.916;2022-12-18T08:27:39;-5.70;99.90
17797;DHT22;55596;53.554;9.916;2022-12-18T08:30:07;-6.60;99.90
17797;DHT22;55596;53.554;9.916;2022-12-18T08:32:34;-6.00;99.90
17797;DHT22;55596;53.554;9.916;2022-12-18T08:35:01;-6.00;99.90
17797;DHT22;55596;53.554;9.916;2022-12-18T08:37:28;-5.80;99.90
17797;DHT22;55596;53.554;9.916;2022-12-18T08:39:55;-5.80;99.90
17797;DHT22;55596;53.554;9.916;2022-12-18T08:42:22;-5.50;99.90
17797;DHT22;55596;53.554;9.916;2022-12-18T08:45:09;-5.60;99.90
17797;DHT22;55596;53.554;9.916;2022-12-18T08:47:36;-5.80;99.90
17797;DHT22;55596;53.554;9.916;2022-12-18T08:50:03;-5.70;99.90
17797;DHT22;55596;53.554;9.916;2022-12-18T08:52:31;-5.70;99.90
17797;DHT22;55596;53.554;9.916;2022-12-18T08:54:58;-5.50;99.90
17797;DHT22;55596;53.554;9.916;2022-12-18T08:57:25;-5.10;99.90
17797;DHT22;55596;53.554;9.916;2022-12-18T08:59:52;-5.70;99.90
17797;DHT22;55596;53.554;9.916;2022-12-18T09:02:20;-5.20;99.90
17797;DHT22;55596;53.554;9.916;2022-12-18T09:04:47;-5.50;99.90
17797;DHT22;55596;53.554;9.916;2022-12-18T09:07:14;-5.40;99.90
17797;DHT22;55596;53.554;9.916;2022-12-18T09:09:41;-5.30;99.90
17797;DHT22;55596;53.554;9.916;2022-12-18T09:12:08;-4.80;99.90
17797;DHT22;55596;53.554;9.916;2022-12-18T09:14:35;-5.20;99.90
17797;DHT22;55596;53.554;9.916;2022-12-18T09:17:02;-5.50;99.90
17797;DHT22;55596;53.554;9.916;2022-12-18T09:19:30;-5.10;99.90
17797;DHT22;55596;53.554;9.916;2022-12-18T09:21:58;-5.40;99.90
17797;DHT22;55596;53.554;9.916;2022-12-18T09:24:25;-5.20;99.90
17797;DHT22;55596;53.554;9.916;2022-12-18T09:26:53;-5.00;99.90
17797;DHT22;55596;53.554;9.916;2022-12-18T09:29:20;-4.70;99.90
17797;DHT22;55596;53.554;9.916;2022-12-18T09:31:47;-4.60;99.90
17797;DHT22;55596;53.554;9.916;2022-12-18T09:34:15;-4.80;99.90
17797;DHT22;55596;53.554;9.916;2022-12-18T09:36:43;-4.60;99.90
17797;DHT22;55596;53.554;9.916;2022-12-18T09:39:10;-4.80;99.90
17797;DHT22;55596;53.554;9.916;2022-12-18T09:41:42;-4.90;99.90
17797;DHT22;55596;53.554;9.916;2022-12-18T09:44:17;-4.50;99.90
17797;DHT22;55596;53.554;9.916;2022-12-18T09:46:48;-4.60;99.90
17797;DHT22;55596;53.554;9.916;2022-12-18T09:49:18;-4.30;99.90
17797;DHT22;55596;53.554;9.916;2022-12-18T09:51:52;-4.30;99.90
17797;DHT22;55596;53.554;9.916;2022-12-18T09:54:24;-3.60;99.90
17797;DHT22;55596;53.554;9.916;2022-12-18T09:56:52;-4.00;99.90
17797;DHT22;55596;53.554;9.916;2022-12-18T09:59:23;-4.00;99.90
17797;DHT22;55596;53.554;9.916;2022-12-18T10:01:50;-4.50;99.90
17797;DHT22;55596;53.554;9.916;2022-12-18T10:04:18;-4.30;99.90
17797;DHT22;55596;53.554;9.916;2022-12-18T10:06:52;-3.40;99.90
17797;DHT22;55596;53.554;9.916;2022-12-18T10:09:28;-3.50;99.90
17797;DHT22;55596;53.554;9.916;2022-12-18T10:12:04;-3.50;99.90
17797;DHT22;55596;53.554;9.916;2022-12-18T10:14:39;-3.60;99.90
17797;DHT22;55596;53.554;9.916;2022-12-18T10:17:17;-3.60;99.90
17797;DHT22;55596;53.554;9.916;2022-12-18T10:19:50;-3.30;99.90
17797;DHT22;55596;53.554;9.916;2022-12-18T10:22:32;-3.40;99.90
17797;DHT22;55596;53.554;9.916;2022-12-18T10:25:09;-2.50;99.90
17797;DHT22;55596;53.554;9.916;2022-12-18T10:27:41;-3.30;99.90
17797;DHT22;55596;53.554;9.916;2022-12-18T10:30:13;-3.00;99.90
17797;DHT22;55596;53.554;9.916;2022-12-18T10:32:40;-3.10;99.90
17797;DHT22;55596;53.554;9.916;2022-12-18T10:35:14;-3.00;99.90
17797;DHT22;55596;53.554;9.916;2022-12-18T10:38:03;-3.00;99.90
17797;DHT22;55596;53.554;9.916;2022-12-18T10:40:30;-2.80;99.90
17797;DHT22;55596;53.554;9.916;2022-12-18T10:43:04;-3.10;99.90
17797;DHT22;55596;53.554;9.916;2022-12-18T10:45:32;-3.00;99.90
17797;DHT22;55596;53.554;9.916;2022-12-18T10:47:58;-0.40;99.90
17797;DHT22;55596;53.554;9.916;2022-12-18T10:50:29;-2.80;99.90
17797;DHT22;55596;53.554;9.916;2022-12-18T10:52:58;-2.60;99.90
17797;DHT22;55596;53.554;9.916;2022-12-18T10:55:32;-2.20;99.90
17797;DHT22;55596;53.554;9.916;2022-12-18T10:58:16;-1.60;99.90
17797;DHT22;55596;53.554;9.916;2022-12-18T11:00:43;-2.70;99.90
17797;DHT22;55596;53.554;9.916;2022-12-18T11:03:30;-2.40;99.90
17797;DHT22;55596;53.554;9.916;2022-12-18T11:06:09;-2.50;99.90
17797;DHT22;55596;53.554;9.916;2022-12-18T11:08:36;-2.60;99.90
17797;DHT22;55596;53.554;9.916;2022-12-18T11:11:14;-2.50;99.90
17797;DHT22;55596;53.554;9.916;2022-12-18T11:13:52;-2.30;99.90
17797;DHT22;55596;53.554;9.916;2022-12-18T11:16:21;-2.20;99.90
17797;DHT22;55596;53.554;9.916;2022-12-18T11:18:49;-2.20;99.90
17797;DHT22;55596;53.554;9.916;2022-12-18T11:21:16;-2.20;99.90
17797;DHT22;55596;53.554;9.916;2022-12-18T11:23:47;-2.10;99.90
17797;DHT22;55596;53.554;9.916;2022-12-18T11:26:16;-2.30;99.90
17797;DHT22;55596;53.554;9.916;2022-12-18T11:28:46;-1.70;99.90
17797;DHT22;55596;53.554;9.916;2022-12-18T11:31:25;-2.40;99.90
17797;DHT22;55596;53.554;9.916;2022-12-18T11:34:04;-1.90;99.90
17797;DHT22;55596;53.554;9.916;2022-12-18T11:36:38;-1.90;99.90
17797;DHT22;55596;53.554;9.916;2022-12-18T11:39:12;-2.50;99.90
17797;DHT22;55596;53.554;9.916;2022-12-18T11:41:48;-2.20;99.90
17797;DHT22;55596;53.554;9.916;2022-12-18T11:44:39;-1.60;99.90
17797;DHT22;55596;53.554;9.916;2022-12-18T11:47:15;-1.60;99.90
17797;DHT22;55596;53.554;9.916;2022-12-18T11:49:48;-1.70;99.90
17797;DHT22;55596;53.554;9.916;2022-12-18T11:52:20;-1.30;99.90
17797;DHT22;55596;53.554;9.916;2022-12-18T11:54:56;-0.10;99.90
17797;DHT22;55596;53.554;9.916;2022-12-18T11:57:32;0.10;99.90
17797;DHT22;55596;53.554;9.916;2022-12-18T12:00:07;0.20;99.90
17797;DHT22;55596;53.554;9.916;2022-12-18T12:02:48;0.30;99.90
17797;DHT22;55596;53.554;9.916;2022-12-18T12:05:40;-0.10;99.90
17797;DHT22;55596;53.554;9.916;2022-12-18T12:08:14;-0.10;99.90
17797;DHT22;55596;53.554;9.916;2022-12-18T12:10:53;-0.60;99.90
17797;DHT22;55596;53.554;9.916;2022-12-18T12:13:35;-0.30;99.90
17797;DHT22;55596;53.554;9.916;2022-12-18T12:16:15;-0.70;99.90
17797;DHT22;55596;53.554;9.916;2022-12-18T12:19:01;-1.10;99.90
17797;DHT22;55596;53.554;9.916;2022-12-18T12:21:37;-0.90;99.90
17797;DHT22;55596;53.554;9.916;2022-12-18T12:24:19;-1.20;99.90
17797;DHT22;55596;53.554;9.916;2022-12-18T12:26:55;0.20;99.90
17797;DHT22;55596;53.554;9.916;2022-12-18T12:29:37;-1.60;99.90
17797;DHT22;55596;53.554;9.916;2022-12-18T12:32:16;-1.20;99.90
17797;DHT22;55596;53.554;9.916;2022-12-18T12:34:57;-0.60;99.90
17797;DHT22;55596;53.554;9.916;2022-12-18T12:37:34;-1.20;99.90
17797;DHT22;55596;53.554;9.916;2022-12-18T12:40:05;-1.40;99.90
17797;DHT22;55596;53.554;9.916;2022-12-18T12:42:35;-0.70;99.90
17797;DHT22;55596;53.554;9.916;2022-12-18T12:45:29;-0.90;99.90
17797;DHT22;55596;53.554;9.916;2022-12-18T12:48:02;-0.30;99.90
17797;DHT22;55596;53.554;9.916;2022-12-18T12:50:33;0.40;99.90
17797;DHT22;55596;53.554;9.916;2022-12-18T12:53:01;0.60;99.90
17797;DHT22;55596;53.554;9.916;2022-12-18T12:55:32;0.10;99.90
17797;DHT22;55596;53.554;9.916;2022-12-18T12:58:12;0.60;99.90
17797;DHT22;55596;53.554;9.916;2022-12-18T13:00:49;1.00;99.90
17797;DHT22;55596;53.554;9.916;2022-12-18T13:03:28;0.10;99.90
17797;DHT22;55596;53.554;9.916;2022-12-18T13:06:00;-0.40;99.90
17797;DHT22;55596;53.554;9.916;2022-12-18T13:08:31;-0.40;99.90
17797;DHT22;55596;53.554;9.916;2022-12-18T13:10:58;-1.00;99.90
17797;DHT22;55596;53.554;9.916;2022-12-18T13:13:50;-0.50;99.90
17797;DHT22;55596;53.554;9.916;2022-12-18T13:16:21;0.10;99.90
17797;DHT22;55596;53.554;9.916;2022-12-18T13:18:49;0.60;99.90
17797;DHT22;55596;53.554;9.916;2022-12-18T13:21:21;0.50;99.90
17797;DHT22;55596;53.554;9.916;2022-12-18T13:23:50;0.20;99.90
17797;DHT22;55596;53.554;9.916;2022-12-18T13:26:31;-0.20;99.90
17797;DHT22;55596;53.554;9.916;2022-12-18T13:29:02;-0.30;99.90
17797;DHT22;55596;53.554;9.916;2022-12-18T13:34:35;-0.90;99.90
17797;DHT22;55596;53.554;9.916;2022-12-18T13:37:39;-1.20;99.90
17797;DHT22;55596;53.554;9.916;2022-12-18T13:43:35;-2.00;99.90
17797;DHT22;55596;53.554;9.916;2022-12-18T13:46:16;-1.70;99.90
17797;DHT22;55596;53.554;9.916;2022-12-18T13:48:55;-2.00;99.90
17797;DHT22;55596;53.554;9.916;2022-12-18T13:51:31;-1.70;99.90
17797;DHT22;55596;53.554;9.916;2022-12-18T13:54:00;-0.50;99.90
17797;DHT22;55596;53.554;9.916;2022-12-18T13:56:32;-2.40;99.90
17797;DHT22;55596;53.554;9.916;2022-12-18T13:59:17;-2.30;99.90
17797;DHT22;55596;53.554;9.916;2022-12-18T14:01:50;-2.10;99.90
17797;DHT22;55596;53.554;9.916;2022-12-18T14:04:23;-1.10;99.90
17797;DHT22;55596;53.554;9.916;2022-12-18T14:06:56;-2.20;99.90
17797;DHT22;55596;53.554;9.916;2022-12-18T14:09:27;-2.70;99.90
17797;DHT22;55596;53.554;9.916;2022-12-18T14:11:56;-2.50;99.90
17797;DHT22;55596;53.554;9.916;2022-12-18T14:14:37;-2.70;99.90
17797;DHT22;55596;53.554;9.916;2022-12-18T14:17:09;-2.60;99.90
17797;DHT22;55596;53.554;9.916;2022-12-18T14:19:41;-2.40;99.90
17797;DHT22;55596;53.554;9.916;2022-12-18T14:22:15;-2.70;99.90
17797;DHT22;55596;53.554;9.916;2022-12-18T14:24:44;-3.30;99.90
17797;DHT22;55596;53.554;9.916;2022-12-18T14:27:23;-2.70;99.90
17797;DHT22;55596;53.554;9.916;2022-12-18T14:29:51;-3.00;99.90
17797;DHT22;55596;53.554;9.916;2022-12-18T14:32:20;-3.00;99.90
17797;DHT22;55596;53.554;9.916;2022-12-18T14:34:49;-3.00;99.90
17797;DHT22;55596;53.554;9.916;2022-12-18T14:37:21;-2.80;99.90
17797;DHT22;55596;53.554;9.916;2022-12-18T14:39:53;-3.20;99.90
17797;DHT22;55596;53.554;9.916;2022-12-18T14:42:20;-2.90;99.90
17797;DHT22;55596;53.554;9.916;2022-12-18T14:44:47;-3.80;99.90
17797;DHT22;55596;53.554;9.916;2022-12-18T14:47:15;-3.60;99.90
17797;DHT22;55596;53.554;9.916;2022-12-18T14:49:42;-3.40;99.90
17797;DHT22;55596;53.554;9.916;2022-12-18T14:52:22;-2.80;99.90
17797;DHT22;55596;53.554;9.916;2022-12-18T14:54:50;-3.10;99.90
17797;DHT22;55596;53.554;9.916;2022-12-18T14:57:22;-3.70;99.90
17797;DHT22;55596;53.554;9.916;2022-12-18T14:59:50;-3.10;99.90
17797;DHT22;55596;53.554;9.916;2022-12-18T15:02:21;-3.80;99.90
17797;DHT22;55596;53.554;9.916;2022-12-18T15:05:00;-3.80;99.90
17797;DHT22;55596;53.554;9.916;2022-12-18T15:07:40;-3.80;99.90
17797;DHT22;55596;53.554;9.916;2022-12-18T15:10:11;-3.50;99.90
17797;DHT22;55596;53.554;9.916;2022-12-18T15:12:41;-3.90;99.90
17797;DHT22;55596;53.554;9.916;2022-12-18T15:15:44;-4.10;99.90
17797;DHT22;55596;53.554;9.916;2022-12-18T15:18:14;-3.70;99.90
17797;DHT22;55596;53.554;9.916;2022-12-18T15:20:44;-4.20;99.90
17797;DHT22;55596;53.554;9.916;2022-12-18T15:23:19;-4.10;99.90
17797;DHT22;55596;53.554;9.916;2022-12-18T15:25:48;-3.80;99.90
17797;DHT22;55596;53.554;9.916;2022-12-18T15:28:23;-4.10;99.90
17797;DHT22;55596;53.554;9.916;2022-12-18T15:31:05;-4.10;99.90
17797;DHT22;55596;53.554;9.916;2022-12-18T15:33:34;-4.10;99.90
17797;DHT22;55596;53.554;9.916;2022-12-18T15:36:04;-4.10;99.90
17797;DHT22;55596;53.554;9.916;2022-12-18T15:38:34;-3.60;99.90
17797;DHT22;55596;53.554;9.916;2022-12-18T15:41:02;-4.10;99.90
17797;DHT22;55596;53.554;9.916;2022-12-18T15:43:32;-4.00;99.90
17797;DHT22;55596;53.554;9.916;2022-12-18T15:46:02;-3.70;99.90
17797;DHT22;55596;53.554;9.916;2022-12-18T15:48:29;-3.60;99.90
17797;DHT22;55596;53.554;9.916;2022-12-18T15:50:57;-3.40;99.90
17797;DHT22;55596;53.554;9.916;2022-12-18T15:53:29;-3.40;99.90
17797;DHT22;55596;53.554;9.916;2022-12-18T15:55:58;-3.70;99.90
17797;DHT22;55596;53.554;9.916;2022-12-18T15:58:51;-3.50;99.90
17797;DHT22;55596;53.554;9.916;2022-12-18T16:01:18;-3.60;99.90
17797;DHT22;55596;53.554;9.916;2022-12-18T16:03:48;-3.60;99.90